India Meteorological Department
Airport METARs
Date : 17-06-2019
Sl. # Airport METAR
1 Agartala VEAT 170230Z 15003KT 5000 BR FEW010 SCT018 BKN100 30/28 Q1002 NOSIG=
2 Ahmedabad VAAH 170230Z 20006KT 2000 HZ SCT020 29/25 Q1005 BECMG 3000=
3 Allahabad VEAB 170200Z 30007KT 6000 FEW100 31/23 Q1001 NOSIG=
4 Amritsar VIAR 170230Z VRB02KT 3000 HZ NSC 31/22 Q1001 BECMG 5000 HZ=
5 Aurangabad VAAU 170200Z 25004KT 6000 NSC 27/23 Q1010 NOSIG=
6 Bangalore VOBL 170200Z 27010KT 6000 FEW012 22/22 Q1015 NOSIG=
7 Baroda VABO 170200Z 21008KT 6000 SCT015 FEW025 TCUTOSW 30/26 Q1005 NOSIG=
8 Bhopal VABP 170130Z 26010KT 6000 SCT100 28/22 Q1008 NOSIG=
9 Bhubaneswar VEBS 170200Z 33003KT 9999 NSC 30/26 Q1001 NOSIG=
10 Bhuntar VIBR 170200Z 00000KT 6000 FEW030 16/14 Q1010=
11 Chennai VOMM 170230Z 27008G18KT 6000 FEW020 36/21 Q1006 NOSIG=
12 Coimbatore VOCB 170200Z 20006KT 4000 BR NSC 26/23 Q1012 NOSIG=
13 Colombo VCBI 170210Z 24006KT 200V260 9999 SCT018 30/26 Q1010 NOSIG=
14 Delhi VIDP 170200Z 27007KT 3500 HZ FEW040 FEW040CB BKN100 32/19 Q1001 NOSIG=
15 Dehradun VIDN 170230Z 34004KT 5000 HZ NSC 29/19 Q1002=
16 Gauhati VEGT 170230Z 00000KT 2000 BR SCT018 FEW025CB OVC090 29/28 Q1001 NOSIG=
17 Gaya VEGY 170200Z 25004KT 3000 HZ FEW020 SCT100 33/21 Q1000=
18 Gaggal VIGG 170200Z 09002KT 6000 FEW040 25/18 Q1007=
19 Goa VOGO 170130Z 23010KT 6000 FEW020 SCT220 29/25 Q1009 NOSIG=
20 Hyderabad VOHS 170200Z 29013KT 6000 SCT015 SCT100 28/21 Q1011 TEMPO 5000 HZ=
21 Indore VAID 170200Z 27010KT 5000 HZ SCT020 SCT030 27/22 Q1009 NOSIG=
22 Jabalpur VAJB 170200Z 24006KT 4000 HZ SCT025 BKN100 30/22 Q1007=
23 Jaipur VIJP 170230Z 27010KT 2000 HZ NSC 30/23 Q1004 NOSIG=
24 Kochi VOCI 170230Z 00000KT 4500 BR FEW020 28/26 Q1010 NOSIG=
25 Kolkata VECC 170200Z 24005KT 3200 HZ SCT018 BKN090 32/29 Q0999 NOSIG=
26 Kozhikode VOCL 170230Z 06002KT 5000 BR FEW008 SCT015 29/25 Q1010 NOSIG=
27 Lucknow VILK 170200Z 24008KT 4000 HZ FEW100 30/23 Q1000 NOSIG=
28 Madurai VOMD 170230Z 34004KT 6000 FEW020 31/22 Q1009 NOSIG=
29 Mohanbari VEMN 170200Z 05005KT 3000 BR SCT020 BKN100 28/25 Q1001 NOSIG=
30 Mumbai VABB 170200Z 20011KT 3000 BR SCT018 SCT025 BKN100 30/26 Q1007 NOSIG=
31 Nagpur VANP 170230Z 36012KT 4000 HZ FEW020 BKN100 34/20 Q1006 NOSIG=
32 Ozar VAOZ 170200Z 24008KT 6000 SCT018 SCT025 26/21 Q1011 NOSIG=
33 Patna VEPT 170230Z 27012KT 4500 HZ FEW020 BKN100 34/21 Q0998 NOSIG=
34 Raipur VERP 170200Z 18009KT 6000 SCT100 28/25 Q1005 NOSIG=
35 Safdarjung VIDD 170230Z 24007KT 2500 HZ SCT035 FEW040CB SCT100 31/20 Q1001 NOSIG=
36 Shimla VISM 170200Z 00000KT 6000 HZ NSC 23/13 Q1011=
37 Surat VASU 170130Z 20010KT 6000 FEW020 FEW025 30/26 Q1005=
38 Ranchi VERC 170230Z 25003KT 4000 HZ SCT020 BKN100 28/23 Q1005 NOSIG=
39 Trichy VOTR 170230Z 28010KT 6000 FEW018 SCT100 30/21 Q1007 NOSIG=
40 Trivandrum VOTV 170230Z 36006KT 5000 HZ FEW015 29/25 Q1009 NOSIG=
41 Udaipur VAUD 170200Z 24004KT 5000 HZ FEW030 SCT035 28/23 Q1007 NOSIG =
42 Varanasi VEBN 170200Z 26008KT 4000 HZ NSC 31/22 Q1000 NOSIG=
43 Vizag VOVZ 170230Z VRB02KT 5000 HZ FEW018 BKN090 30/25 Q1002 NOSIG =
44 Male VRMM 170200Z 28005KT 9999 FEW018 FEW019CB BKN280 29/26 Q1011 CB SE,WSW TEMPO 5000 -TSRA=
45 Gan VRMG 170200Z 11004KT 9999 FEW018 BKN260 26/25 Q1011 NOSIG=
46 Kathmandu VNKT 170220Z VRB02KT 5000 BR FEW015 25/21 Q1008 NOSIG=
47 Dhaka VGHS 170230Z 14010KT 3500 HZ SCT012 BKN100 31/26 Q1001 NOSIG=
48 Colombo VCBI 170210Z 24006KT 200V260 9999 SCT018 30/26 Q1010 NOSIG=
49 Karachi OPKC 170155Z 13008KT 6000 SCT020 29/24 Q1001 NOSIG=
50 Lahore OPLA 170155Z 26004KT 4000 FU NSC 31/23 Q1000 NOSIG RMK A29.55=
51 Leh VILH 170200Z 31011G21KT 6000 SOCC FEW060 SCT100 11/-3 Q1021 TEMPO 33015G25KT=
52 Sri Nagar VISR 170200Z VRB02KT 6000 FEW030 17/12 Q1013 NOSIG=
53 Jammu VIJU 170200Z VRB02KT 6000 FEW100 31/11 Q1000 NOSIG=
54 Jodhpur VIJO 170200Z 25012KT 6000 FEW040 31/23 Q1005 NOSIG=
55 Jaisalmer VIJR 170200Z 20013KT 6000 FEW030 30/23 Q1004 NOSIG=
56 Bhuj-Rudra VABJ 170200Z 15010G20KT 6000 RERA SCT015 SCT020 30/24 Q1003 TEMPO RA=
57 Gorakhpur VEGK 170200Z 29010KT 6000 SKC 32/22 Q0999 NOSIG=
58 Agra VIAG 170200Z 25008KT 6000 SCT030 SCT090 31/24 Q1001 NOSIG=
59 Bagdogra VEBD 170200Z 05006KT 4000 BRTSRA FEW008 SCT012 FEW030CB BKN070 26/25 Q1000 TEMPO 3000 TSRA=
60 Gwalior VIGR 170200Z 24008KT 6000 SCT090 31/24 Q1002 NOSIG=
61 Pune VAPO 170200Z 25008KT 6000 SCT025 BKN090 27/21 Q1012 TEMPO -RA=
62 Chandigarh VICG 170200Z 34007KT 6000 SKC 31/18 Q1001 NOSIG=
63 Jamnagar VAJM 170200Z 16010KT 6000 FEW015 SCT090 BKN250 30/26 Q1002 NOSIG=

 

--- End of List ---